KLJF

Litchfield Municipal Airport

Litchfield, Minnesota, USA
METAR KLJF 221735Z AUTO 14004KT 10SM SCT019 21/16 A3006 RMK AO2
Observed Flight Rules
May-22 @ 17:35 UTC (19 minutes ago) Visual Flight Rules
Wind Visibility Clouds
140° at 4 knots 10 miles
  • Scattered at 1,900' AGL
Temperatures Readings
Current 21°C / 70°F
Dewpoint 16°C / 61°F
Humidity 73%
Altimeter 30.06" Hg
Pressure 1018 hPa
Elevation 348
METAR KLJF 221735Z AUTO 14004KT 10SM SCT019 21/16 A3006 RMK AO2
Observed Flight Rules
May-22 @ 17:35 UTC
(19 minutes ago)
VFR
Wind Visibility
140° at 4 knots 10 miles
Clouds
  • Scattered at 1,900' AGL
Temperature Dewpoint
21°C / 70°F 16°C / 61°F
Humidity Altimeter Pressure
73% 30.06" Hg 1018 hPa